Time;durP1;ratioP1;P1;durP2;ratioP2;P2;SDS_P1;SDS_P2;PMS_P1;PMS_P2;Temp;Humidity;BMP_temperature;BMP_pressure;BME280_temperature;BME280_humidity;BME280_pressure;Samples;Min_cycle;Max_cycle;Signal;HPM_P1;HPM_P2
2021/05/22 00:00:48;;;;;;;1.80;0.60;;;11.20;71.30;;;;;;5102422;28;20051;-76
2021/05/22 00:03:14;;;;;;;1.25;0.70;;;11.20;71.40;;;;;;5106857;28;20054;-76
2021/05/22 00:05:40;;;;;;;0.68;0.40;;;11.10;71.30;;;;;;5104318;28;20040;-76
2021/05/22 00:08:06;;;;;;;1.13;0.52;;;11.20;71.40;;;;;;5066621;28;20036;-76
2021/05/22 00:10:32;;;;;;;1.08;0.57;;;11.10;71.40;;;;;;5081690;28;20486;-76
2021/05/22 00:12:57;;;;;;;1.25;0.60;;;11.10;71.50;;;;;;5091244;28;20047;-76
2021/05/22 00:15:23;;;;;;;0.75;0.40;;;11.20;71.60;;;;;;5068972;28;20087;-77
2021/05/22 00:17:49;;;;;;;1.38;0.70;;;11.10;71.50;;;;;;5070692;28;20044;-76
2021/05/22 00:20:15;;;;;;;1.70;0.70;;;11.10;71.60;;;;;;5064330;28;20044;-76
2021/05/22 00:22:41;;;;;;;1.33;0.50;;;11.20;71.60;;;;;;5080911;28;20107;-76
2021/05/22 00:25:09;;;;;;;0.98;0.50;;;11.20;71.60;;;;;;5065215;28;20047;-78
2021/05/22 00:27:36;;;;;;;0.98;0.57;;;11.20;71.60;;;;;;5102338;28;20131;-77
2021/05/22 00:30:04;;;;;;;2.38;0.60;;;11.20;71.60;;;;;;5099461;28;20055;-76
2021/05/22 00:32:30;;;;;;;1.73;0.70;;;11.20;71.50;;;;;;5099632;28;20032;-77
2021/05/22 00:34:56;;;;;;;1.27;0.50;;;11.20;71.50;;;;;;5077676;28;20147;-76
2021/05/22 00:37:22;;;;;;;0.90;0.40;;;11.20;71.40;;;;;;5099241;28;20040;-76
2021/05/22 00:39:48;;;;;;;1.48;0.50;;;11.20;71.40;;;;;;5099770;28;20086;-76
2021/05/22 00:42:14;;;;;;;1.02;0.47;;;11.20;71.40;;;;;;5063222;28;20369;-76
2021/05/22 00:45:11;;;;;;;1.85;0.90;;;11.20;71.40;;;;;;5101453;28;20043;-76
2021/05/22 00:47:40;;;;;;;1.95;0.68;;;11.20;71.30;;;;;;5080461;28;20071;-76
2021/05/22 00:50:08;;;;;;;2.92;0.70;;;11.30;71.30;;;;;;5078512;28;20040;-77
2021/05/22 00:52:34;;;;;;;1.70;0.40;;;11.30;71.20;;;;;;5097003;28;20103;-76
2021/05/22 00:55:00;;;;;;;2.30;0.75;;;11.30;71.30;;;;;;5064543;28;20136;-76
2021/05/22 00:57:26;;;;;;;0.63;0.50;;;11.30;71.30;;;;;;5083083;28;20066;-75
2021/05/22 00:59:52;;;;;;;0.63;0.40;;;11.30;71.30;;;;;;5059522;28;20436;-77
2021/05/22 01:02:24;;;;;;;2.78;0.63;;;11.20;71.20;;;;;;5074757;28;20047;-77
2021/05/22 01:04:51;;;;;;;1.23;0.60;;;11.20;71.20;;;;;;5093865;28;20050;-78
2021/05/22 01:07:18;;;;;;;1.42;0.50;;;11.30;71.30;;;;;;5093513;28;20043;-77
2021/05/22 01:09:47;;;;;;;0.60;0.30;;;11.20;71.20;;;;;;5042398;28;20036;-79
2021/05/22 01:12:14;;;;;;;1.15;0.60;;;11.20;71.20;;;;;;5075049;28;20092;-78
2021/05/22 01:14:48;;;;;;;1.90;0.60;;;11.30;71.20;;;;;;5058882;28;20036;-77
2021/05/22 01:17:17;;;;;;;2.38;0.60;;;11.30;71.20;;;;;;5058697;28;20052;-77
2021/05/22 01:20:04;;;;;;;1.75;0.70;;;11.20;71.20;;;;;;5058696;28;20036;-77
2021/05/22 01:22:37;;;;;;;2.03;0.68;;;11.30;71.20;;;;;;5092794;28;20094;-78
2021/05/22 01:25:25;;;;;;;4.07;0.80;;;11.20;71.20;;;;;;5074492;28;20509;-77
2021/05/22 01:27:51;;;;;;;1.20;0.68;;;11.30;71.20;;;;;;5091680;28;20487;-77
2021/05/22 01:30:18;;;;;;;1.17;0.60;;;11.30;71.20;;;;;;5073985;28;20432;-76
2021/05/22 01:32:44;;;;;;;1.65;0.60;;;11.20;71.10;;;;;;5073714;28;20052;-76
2021/05/22 01:35:12;;;;;;;1.33;0.50;;;11.20;71.10;;;;;;5073606;28;20028;-75
2021/05/22 01:37:37;;;;;;;0.85;0.50;;;11.30;71.10;;;;;;5075535;28;20032;-76
2021/05/22 01:40:05;;;;;;;1.27;0.50;;;11.20;71.10;;;;;;5095267;28;20082;-76
2021/05/22 01:42:31;;;;;;;1.65;0.57;;;11.30;71.20;;;;;;5076721;28;20056;-76
2021/05/22 01:44:57;;;;;;;2.42;0.63;;;11.30;71.20;;;;;;5077087;28;20047;-76
2021/05/22 01:47:24;;;;;;;2.00;0.70;;;11.20;71.20;;;;;;5094966;28;20055;-76
2021/05/22 01:49:51;;;;;;;1.90;0.57;;;11.20;71.20;;;;;;5094901;28;20039;-76
2021/05/22 01:52:19;;;;;;;1.33;0.50;;;11.20;71.20;;;;;;5059058;28;20043;-76
2021/05/22 01:54:48;;;;;;;3.17;0.70;;;11.20;71.20;;;;;;5076757;28;20043;-76
2021/05/22 01:57:15;;;;;;;2.05;0.77;;;11.20;71.10;;;;;;5094669;28;20508;-77
2021/05/22 01:59:41;;;;;;;2.25;0.90;;;11.20;71.10;;;;;;5076529;28;20048;-77
2021/05/22 02:02:07;;;;;;;2.03;0.80;;;11.20;71.10;;;;;;5076372;28;20040;-76
2021/05/22 02:04:36;;;;;;;0.55;0.52;;;11.20;71.10;;;;;;5094199;28;20058;-76
2021/05/22 02:07:03;;;;;;;1.55;0.65;;;11.20;71.10;;;;;;5059712;28;20043;-76
2021/05/22 02:09:30;;;;;;;1.42;0.60;;;11.20;71.10;;;;;;5094195;28;20052;-76
2021/05/22 02:11:57;;;;;;;2.70;0.57;;;11.10;71.10;;;;;;5094177;28;20042;-76
2021/05/22 02:14:38;;;;;;;1.25;0.65;;;11.20;71.20;;;;;;5094598;28;20040;-76
2021/05/22 02:17:06;;;;;;;1.50;0.82;;;11.20;71.30;;;;;;5075192;28;20143;-76
2021/05/22 02:19:35;;;;;;;1.63;0.50;;;11.20;71.40;;;;;;5094382;28;20035;-76
2021/05/22 02:22:05;;;;;;;1.77;0.75;;;11.10;71.40;;;;;;5076656;28;20351;-76
2021/05/22 02:24:32;;;;;;;1.73;0.68;;;11.10;71.50;;;;;;5076911;28;20110;-77
2021/05/22 02:26:59;;;;;;;1.45;0.50;;;11.10;71.50;;;;;;5059677;28;20448;-76
2021/05/22 02:29:26;;;;;;;1.23;0.52;;;11.10;71.50;;;;;;5076628;28;20152;-76
2021/05/22 02:31:53;;;;;;;1.23;0.60;;;11.10;71.60;;;;;;5078371;28;20436;-75
2021/05/22 02:34:28;;;;;;;1.85;0.68;;;11.10;71.50;;;;;;5094329;28;20040;-75
2021/05/22 02:36:55;;;;;;;0.98;0.50;;;11.10;71.60;;;;;;5076238;28;20418;-76
2021/05/22 02:39:22;;;;;;;1.85;0.57;;;11.10;71.70;;;;;;5059205;28;20493;-75
2021/05/22 02:41:50;;;;;;;1.27;0.40;;;11.00;71.70;;;;;;5074641;28;20089;-76
2021/05/22 02:44:18;;;;;;;1.88;0.65;;;11.00;71.70;;;;;;5076911;28;20071;-76
2021/05/22 02:46:47;;;;;;;0.73;0.60;;;11.10;71.90;;;;;;5094280;28;20040;-75
2021/05/22 02:49:17;;;;;;;1.63;0.57;;;11.00;71.90;;;;;;5075825;28;20039;-75
2021/05/22 02:51:45;;;;;;;1.88;0.40;;;11.10;71.90;;;;;;5093982;28;20089;-75
2021/05/22 02:54:11;;;;;;;0.90;0.30;;;11.00;71.90;;;;;;5093977;28;20044;-75
2021/05/22 02:56:38;;;;;;;0.75;0.50;;;11.00;71.90;;;;;;5094374;28;20032;-76
2021/05/22 02:59:06;;;;;;;2.03;0.50;;;11.10;72.00;;;;;;5074253;28;20044;-75
2021/05/22 03:01:31;;;;;;;1.80;0.45;;;11.00;72.00;;;;;;5058732;28;20044;-76
2021/05/22 03:03:59;;;;;;;1.38;0.43;;;11.00;72.00;;;;;;5093165;28;20040;-76
2021/05/22 03:06:25;;;;;;;2.22;0.50;;;11.00;72.00;;;;;;5093243;28;20051;-76
2021/05/22 03:08:51;;;;;;;0.50;0.40;;;11.00;72.10;;;;;;5074765;28;20524;-76
2021/05/22 03:11:20;;;;;;;1.95;0.70;;;11.00;72.10;;;;;;5041756;28;20424;-76
2021/05/22 03:13:46;;;;;;;1.17;0.50;;;11.00;72.20;;;;;;5075790;28;20065;-77
2021/05/22 03:16:12;;;;;;;1.13;0.43;;;11.00;72.30;;;;;;5093632;28;20447;-76
2021/05/22 03:18:38;;;;;;;1.90;0.55;;;11.00;72.40;;;;;;5093743;28;20044;-76
2021/05/22 03:21:05;;;;;;;1.65;0.40;;;11.00;72.40;;;;;;5093349;28;20088;-76
2021/05/22 03:23:30;;;;;;;0.73;0.50;;;11.00;72.50;;;;;;5093523;28;20051;-76
2021/05/22 03:25:56;;;;;;;0.70;0.60;;;11.00;72.50;;;;;;5074773;28;20570;-76
2021/05/22 03:28:22;;;;;;;0.77;0.45;;;11.00;72.40;;;;;;5075397;28;20032;-76
2021/05/22 03:30:50;;;;;;;1.60;0.60;;;11.00;72.30;;;;;;5075131;28;20055;-76
2021/05/22 03:33:16;;;;;;;1.17;0.50;;;11.10;72.30;;;;;;5059003;28;20040;-76
2021/05/22 03:35:42;;;;;;;2.20;0.32;;;11.10;72.30;;;;;;5058706;28;20508;-76
2021/05/22 03:38:08;;;;;;;0.70;0.47;;;11.10;72.30;;;;;;5093479;28;20078;-76
2021/05/22 03:40:34;;;;;;;1.33;0.40;;;11.10;72.30;;;;;;5093951;28;20036;-76
2021/05/22 03:43:00;;;;;;;0.25;0.25;;;11.10;72.30;;;;;;5074730;28;20044;-76
2021/05/22 03:45:25;;;;;;;0.77;0.25;;;11.10;72.30;;;;;;5097246;28;20485;-75
2021/05/22 03:47:51;;;;;;;1.20;0.47;;;11.00;72.20;;;;;;5079239;28;20082;-75
2021/05/22 03:50:17;;;;;;;1.20;0.50;;;11.20;72.30;;;;;;5063185;28;20181;-75
2021/05/22 03:52:43;;;;;;;0.52;0.52;;;11.10;72.30;;;;;;5099031;28;20044;-75
2021/05/22 03:55:10;;;;;;;0.85;0.40;;;11.10;72.30;;;;;;5064584;28;20036;-75
2021/05/22 03:57:36;;;;;;;0.60;0.35;;;11.10;72.30;;;;;;5078875;28;20040;-76
2021/05/22 04:00:05;;;;;;;0.85;0.50;;;11.10;72.30;;;;;;5079946;28;20086;-74
2021/05/22 04:02:31;;;;;;;0.82;0.35;;;11.10;72.40;;;;;;5079510;28;20478;-76
2021/05/22 04:04:56;;;;;;;0.70;0.47;;;11.20;72.50;;;;;;5077663;28;20093;-74
2021/05/22 04:07:22;;;;;;;1.20;0.40;;;11.10;72.50;;;;;;5095416;28;20043;-75
2021/05/22 04:09:48;;;;;;;0.32;0.17;;;11.20;72.50;;;;;;5063822;28;20080;-75
2021/05/22 04:12:14;;;;;;;2.67;0.52;;;11.10;72.50;;;;;;5098160;28;20556;-76
2021/05/22 04:14:39;;;;;;;1.05;0.50;;;11.20;72.60;;;;;;5083106;28;20048;-75
2021/05/22 04:17:05;;;;;;;1.55;0.57;;;11.20;72.60;;;;;;5080905;28;20397;-76
2021/05/22 04:19:31;;;;;;;1.35;0.60;;;11.10;72.60;;;;;;5077659;28;20112;-77
2021/05/22 04:21:56;;;;;;;1.00;0.50;;;11.10;72.60;;;;;;5077342;28;20068;-75
2021/05/22 04:24:22;;;;;;;1.02;0.60;;;11.10;72.60;;;;;;5078819;28;20382;-76
2021/05/22 04:26:48;;;;;;;2.05;0.45;;;11.20;72.70;;;;;;5080915;28;20548;-75
2021/05/22 04:29:14;;;;;;;1.30;0.70;;;11.10;72.70;;;;;;5097746;28;20040;-76
2021/05/22 04:31:39;;;;;;;0.95;0.35;;;11.20;72.80;;;;;;5096732;28;20055;-76
2021/05/22 04:34:05;;;;;;;4.20;0.60;;;11.20;72.90;;;;;;5077605;28;20481;-76
2021/05/22 04:36:31;;;;;;;1.35;0.68;;;11.10;72.90;;;;;;5084436;28;20105;-75
2021/05/22 04:38:57;;;;;;;1.30;0.40;;;11.10;73.00;;;;;;5085470;28;20024;-76
2021/05/22 04:41:23;;;;;;;1.10;0.52;;;11.10;73.10;;;;;;5082186;28;20098;-76
2021/05/22 04:43:48;;;;;;;0.80;0.55;;;11.00;73.20;;;;;;5105044;28;20082;-76
2021/05/22 04:46:14;;;;;;;3.00;0.82;;;11.10;73.50;;;;;;5105580;28;20036;-77
2021/05/22 04:48:40;;;;;;;2.40;0.65;;;11.00;73.60;;;;;;5088295;28;20036;-75
2021/05/22 04:51:06;;;;;;;0.77;0.57;;;10.90;73.70;;;;;;5104436;28;20024;-76
2021/05/22 04:53:33;;;;;;;3.92;0.82;;;10.80;73.90;;;;;;5073504;28;20036;-76
2021/05/22 04:55:58;;;;;;;1.35;0.52;;;10.90;74.20;;;;;;5110830;28;20043;-76
2021/05/22 04:58:24;;;;;;;3.03;0.60;;;10.80;74.30;;;;;;5090346;28;20036;-75
2021/05/22 05:00:50;;;;;;;1.05;0.60;;;10.80;74.40;;;;;;5073479;28;20047;-78
2021/05/22 05:03:16;;;;;;;1.73;0.60;;;10.70;74.60;;;;;;5063015;28;20573;-78
2021/05/22 05:05:42;;;;;;;2.42;0.60;;;10.70;74.80;;;;;;5074707;28;20040;-77
2021/05/22 05:08:08;;;;;;;2.75;0.90;;;10.60;75.00;;;;;;5092330;28;20097;-78
2021/05/22 05:10:33;;;;;;;1.65;0.60;;;10.60;75.30;;;;;;5074192;28;20074;-77
2021/05/22 05:12:59;;;;;;;0.93;0.63;;;10.60;75.40;;;;;;5095258;28;20442;-78
2021/05/22 05:15:25;;;;;;;2.03;0.63;;;10.60;75.50;;;;;;5077486;28;20039;-78
2021/05/22 05:17:51;;;;;;;3.10;0.60;;;10.60;75.60;;;;;;5078096;28;20462;-78
2021/05/22 05:20:16;;;;;;;0.90;0.60;;;10.60;75.70;;;;;;5063914;28;20397;-79
2021/05/22 05:22:42;;;;;;;1.55;0.70;;;10.60;75.70;;;;;;5077311;28;20040;-76
2021/05/22 05:25:09;;;;;;;1.52;0.60;;;10.50;75.70;;;;;;5077345;28;20398;-78
2021/05/22 05:27:34;;;;;;;1.55;0.70;;;10.60;75.80;;;;;;5077560;28;20051;-78
2021/05/22 05:30:00;;;;;;;1.10;0.60;;;10.60;76.10;;;;;;5060444;28;20040;-77
2021/05/22 05:32:26;;;;;;;2.80;0.60;;;10.50;76.10;;;;;;5060168;28;20135;-78
2021/05/22 05:34:52;;;;;;;1.23;0.40;;;10.50;76.40;;;;;;5077174;28;20489;-78
2021/05/22 05:37:18;;;;;;;1.33;0.43;;;10.50;76.60;;;;;;5095332;28;20132;-77
2021/05/22 05:39:43;;;;;;;1.52;0.60;;;10.50;76.70;;;;;;5076915;28;20509;-77
2021/05/22 05:42:09;;;;;;;0.73;0.40;;;10.40;76.70;;;;;;5095036;28;20177;-77
2021/05/22 05:44:35;;;;;;;1.45;0.50;;;10.40;76.80;;;;;;5095409;28;20126;-78
2021/05/22 05:47:01;;;;;;;2.97;0.70;;;10.40;76.90;;;;;;5076974;28;20119;-77
2021/05/22 05:49:28;;;;;;;0.60;0.40;;;10.40;77.10;;;;;;5095001;28;20558;-78
2021/05/22 05:51:56;;;;;;;0.80;0.50;;;10.40;77.20;;;;;;5095786;28;20051;-78
2021/05/22 05:54:22;;;;;;;2.50;0.40;;;10.40;77.50;;;;;;5076855;28;20051;-78
2021/05/22 05:56:48;;;;;;;1.40;0.40;;;10.40;77.60;;;;;;5094819;28;20498;-77
2021/05/22 05:59:14;;;;;;;3.40;0.77;;;10.30;77.60;;;;;;5077818;28;20036;-77
2021/05/22 06:01:39;;;;;;;1.27;0.60;;;10.30;77.70;;;;;;5076759;28;20032;-78
2021/05/22 06:04:05;;;;;;;2.00;0.50;;;10.30;77.90;;;;;;5077367;28;20044;-78
2021/05/22 06:06:31;;;;;;;0.88;0.43;;;10.30;78.00;;;;;;5077817;28;20051;-77
2021/05/22 06:08:57;;;;;;;1.80;0.60;;;10.20;78.00;;;;;;5060937;28;20056;-77
2021/05/22 06:11:28;;;;;;;1.40;0.50;;;10.20;78.20;;;;;;5077245;28;20044;-77
2021/05/22 06:13:54;;;;;;;1.05;0.40;;;10.20;78.30;;;;;;5075951;28;20041;-77
2021/05/22 06:16:27;;;;;;;2.90;0.50;;;10.30;78.40;;;;;;5076993;28;20042;-77
2021/05/22 06:18:53;;;;;;;1.80;0.75;;;10.20;78.40;;;;;;5076582;28;20071;-76
2021/05/22 06:21:20;;;;;;;1.42;0.60;;;10.30;78.60;;;;;;5094926;28;20498;-77
2021/05/22 06:23:46;;;;;;;0.73;0.52;;;10.30;78.80;;;;;;5095074;28;20378;-78
2021/05/22 06:26:12;;;;;;;1.60;0.40;;;10.30;78.80;;;;;;5076309;28;20067;-76
2021/05/22 06:28:37;;;;;;;1.95;0.75;;;10.30;78.90;;;;;;5064062;28;20043;-79
2021/05/22 06:31:05;;;;;;;2.95;0.50;;;10.30;79.00;;;;;;5060515;28;20097;-77
2021/05/22 06:33:31;;;;;;;2.28;0.73;;;10.30;79.20;;;;;;5066488;28;20046;-76
2021/05/22 06:35:57;;;;;;;1.52;0.50;;;10.30;79.30;;;;;;5112825;28;20611;-78
2021/05/22 06:38:23;;;;;;;1.67;0.50;;;10.30;79.40;;;;;;5095336;28;20044;-77
2021/05/22 06:40:50;;;;;;;1.65;0.40;;;10.30;79.40;;;;;;5076477;28;20477;-77
2021/05/22 06:43:16;;;;;;;1.20;0.50;;;10.30;79.50;;;;;;5095639;28;20048;-77
2021/05/22 06:45:44;;;;;;;0.60;0.50;;;10.30;79.50;;;;;;5112536;28;20035;-77
2021/05/22 06:48:11;;;;;;;2.03;0.50;;;10.30;79.60;;;;;;5096940;28;20048;-78
2021/05/22 06:50:38;;;;;;;1.27;0.50;;;10.30;79.60;;;;;;5081164;28;20055;-77
2021/05/22 06:53:04;;;;;;;1.13;0.50;;;10.30;79.70;;;;;;5100581;28;20123;-78
2021/05/22 06:55:31;;;;;;;1.02;0.47;;;10.30;79.80;;;;;;5094559;28;20509;-78
2021/05/22 06:57:57;;;;;;;0.70;0.50;;;10.30;80.00;;;;;;5076675;28;20046;-78
2021/05/22 07:00:23;;;;;;;1.65;0.45;;;10.20;80.60;;;;;;5044016;28;20492;-79
2021/05/22 07:02:49;;;;;;;1.20;0.40;;;10.30;80.10;;;;;;5100805;28;20071;-78
2021/05/22 07:05:15;;;;;;;0.57;0.40;;;10.30;80.10;;;;;;5096895;28;20055;-78
2021/05/22 07:07:42;;;;;;;0.52;0.47;;;10.30;80.20;;;;;;5032433;28;20603;-77
2021/05/22 07:10:09;;;;;;;0.88;0.40;;;10.40;80.30;;;;;;5033324;28;20052;-77
2021/05/22 07:12:35;;;;;;;1.00;0.40;;;10.40;80.30;;;;;;5016913;28;20053;-77
2021/05/22 07:15:01;;;;;;;1.10;0.50;;;10.40;80.30;;;;;;5017381;28;20041;-78
2021/05/22 07:17:26;;;;;;;1.70;0.52;;;10.40;80.30;;;;;;5000778;28;20135;-78
2021/05/22 07:19:52;;;;;;;0.90;0.47;;;10.40;80.50;;;;;;5032406;28;20041;-77
2021/05/22 07:22:18;;;;;;;1.08;0.60;;;10.40;80.50;;;;;;5033258;28;20128;-78
2021/05/22 07:24:43;;;;;;;2.15;0.43;;;10.40;80.60;;;;;;5017346;28;20439;-77
2021/05/22 07:27:09;;;;;;;0.65;0.30;;;10.40;80.70;;;;;;5034091;28;20095;-78
2021/05/22 07:29:35;;;;;;;0.60;0.50;;;10.40;80.80;;;;;;5035835;28;20045;-78
2021/05/22 07:32:00;;;;;;;1.67;0.70;;;10.40;80.80;;;;;;5017124;28;20038;-78
2021/05/22 07:34:26;;;;;;;1.42;0.60;;;10.40;81.00;;;;;;5016274;28;20034;-78
2021/05/22 07:36:52;;;;;;;1.20;0.50;;;10.30;81.10;;;;;;5033199;28;20160;-78
2021/05/22 07:39:18;;;;;;;1.17;0.45;;;10.40;81.20;;;;;;5080052;28;20069;-78
2021/05/22 07:41:46;;;;;;;1.00;0.30;;;10.40;81.20;;;;;;5095618;28;20028;-78
2021/05/22 07:44:12;;;;;;;1.35;0.43;;;10.40;81.30;;;;;;5095218;28;20040;-78
2021/05/22 07:46:38;;;;;;;0.50;0.47;;;10.50;81.40;;;;;;5061237;28;20066;-78
2021/05/22 07:49:04;;;;;;;0.85;0.38;;;10.40;81.20;;;;;;5059343;28;20040;-80
2021/05/22 07:51:30;;;;;;;0.82;0.30;;;10.50;81.20;;;;;;5044805;28;20059;-75
2021/05/22 07:53:56;;;;;;;0.65;0.40;;;10.50;81.20;;;;;;5094969;28;20036;-78
2021/05/22 07:56:21;;;;;;;1.85;0.70;;;10.50;81.20;;;;;;5077640;28;20036;-77
2021/05/22 07:58:47;;;;;;;1.50;0.52;;;10.50;81.40;;;;;;5076758;28;20047;-78
2021/05/22 08:01:13;;;;;;;1.17;0.52;;;10.60;81.40;;;;;;5076590;28;20040;-78
2021/05/22 08:03:39;;;;;;;0.70;0.57;;;10.60;81.40;;;;;;5077215;28;20059;-78
2021/05/22 08:06:05;;;;;;;0.68;0.45;;;10.70;81.40;;;;;;5097107;28;20044;-78
2021/05/22 08:08:31;;;;;;;1.90;0.40;;;10.60;81.40;;;;;;5095679;28;20040;-78
2021/05/22 08:10:56;;;;;;;1.20;0.40;;;10.60;81.50;;;;;;5095097;28;20040;-78
2021/05/22 08:13:27;;;;;;;0.57;0.40;;;10.70;81.60;;;;;;5094846;28;20442;-77
2021/05/22 08:15:53;;;;;;;0.70;0.35;;;10.60;81.70;;;;;;5096088;28;20077;-78
2021/05/22 08:18:19;;;;;;;1.10;0.50;;;10.60;81.70;;;;;;5077589;28;20119;-78
2021/05/22 08:20:44;;;;;;;1.20;0.65;;;10.70;81.90;;;;;;5060477;28;20036;-79
2021/05/22 08:23:10;;;;;;;1.10;0.63;;;10.70;81.90;;;;;;5060236;28;20044;-79
2021/05/22 08:25:36;;;;;;;0.80;0.60;;;10.70;82.00;;;;;;5076610;28;20036;-78
2021/05/22 08:28:01;;;;;;;1.45;0.40;;;10.70;82.00;;;;;;5094682;28;20490;-77
2021/05/22 08:30:28;;;;;;;0.80;0.50;;;10.70;82.00;;;;;;5077870;28;20078;-78
2021/05/22 08:32:53;;;;;;;1.30;0.30;;;10.70;82.10;;;;;;5078105;28;20044;-78
2021/05/22 08:35:19;;;;;;;1.25;0.30;;;10.70;82.20;;;;;;5095756;28;20477;-77
2021/05/22 08:37:45;;;;;;;0.28;0.28;;;10.80;82.40;;;;;;5077272;28;20040;-78
2021/05/22 08:40:12;;;;;;;1.55;0.43;;;10.70;82.40;;;;;;5094916;28;20051;-78
2021/05/22 08:42:37;;;;;;;1.40;0.50;;;10.70;82.40;;;;;;5077825;28;20048;-78
2021/05/22 08:45:10;;;;;;;0.80;0.50;;;10.70;82.50;;;;;;5060909;28;20032;-78
2021/05/22 08:47:37;;;;;;;0.47;0.40;;;10.70;82.70;;;;;;5064292;28;20040;-78
2021/05/22 08:50:05;;;;;;;0.63;0.40;;;10.70;82.60;;;;;;5099732;28;20054;-77
2021/05/22 08:52:31;;;;;;;0.50;0.40;;;10.70;82.70;;;;;;5063367;28;20048;-79
2021/05/22 08:54:57;;;;;;;1.58;0.40;;;10.70;82.70;;;;;;5096552;28;20042;-78
2021/05/22 08:57:23;;;;;;;1.08;0.50;;;10.70;82.80;;;;;;5061266;28;20062;-79
2021/05/22 08:59:49;;;;;;;1.63;0.60;;;10.70;82.80;;;;;;5096147;28;20048;-79
2021/05/22 09:02:19;;;;;;;0.60;0.40;;;10.70;83.00;;;;;;5078709;28;20517;-79
2021/05/22 09:05:18;;;;;;;0.95;0.50;;;10.70;83.00;;;;;;5077598;28;20056;-77
2021/05/22 09:07:52;;;;;;;0.65;0.50;;;10.80;83.20;;;;;;5077561;28;20439;-78
2021/05/22 09:10:30;;;;;;;0.65;0.50;;;10.70;83.30;;;;;;5061585;28;20048;-79
2021/05/22 09:13:00;;;;;;;0.50;0.50;;;10.70;83.40;;;;;;5095570;28;20106;-77
2021/05/22 09:15:29;;;;;;;1.20;0.43;;;10.80;83.30;;;;;;5043274;28;20138;-79
2021/05/22 09:18:04;;;;;;;0.47;0.30;;;10.90;83.10;;;;;;5077278;28;20126;-78
2021/05/22 09:20:36;;;;;;;0.40;0.40;;;10.90;83.10;;;;;;5061161;28;20070;-78
2021/05/22 09:23:09;;;;;;;1.55;0.60;;;10.90;83.10;;;;;;5076802;28;20505;-78
2021/05/22 09:25:38;;;;;;;1.05;0.80;;;11.00;83.20;;;;;;5095886;28;20047;-77
2021/05/22 09:28:05;;;;;;;0.57;0.30;;;11.00;83.30;;;;;;5095181;28;20036;-77
2021/05/22 09:30:32;;;;;;;0.90;0.40;;;11.00;83.30;;;;;;5060438;28;20101;-77
2021/05/22 09:32:58;;;;;;;0.32;0.32;;;11.10;83.30;;;;;;5060251;28;20055;-77
2021/05/22 09:35:25;;;;;;;0.73;0.50;;;11.10;83.20;;;;;;5095628;28;20058;-77
2021/05/22 09:37:58;;;;;;;0.57;0.50;;;11.10;83.20;;;;;;5043796;28;20440;-77
2021/05/22 09:40:27;;;;;;;0.50;0.50;;;11.20;83.30;;;;;;5095214;28;20131;-77
2021/05/22 09:42:53;;;;;;;0.45;0.45;;;11.20;83.20;;;;;;5076704;28;20039;-77
2021/05/22 09:45:22;;;;;;;0.52;0.52;;;11.20;83.30;;;;;;5059871;28;20063;-77
2021/05/22 09:47:48;;;;;;;0.65;0.50;;;11.20;83.30;;;;;;5077041;28;20770;-77
2021/05/22 09:50:34;;;;;;;1.63;0.40;;;11.20;83.30;;;;;;5080315;28;20066;-78
2021/05/22 09:53:21;;;;;;;1.05;0.60;;;11.30;83.40;;;;;;5062131;28;20409;-78
2021/05/22 09:56:11;;;;;;;0.60;0.52;;;11.30;83.40;;;;;;5096842;28;20097;-77
2021/05/22 09:58:39;;;;;;;0.73;0.63;;;11.20;83.50;;;;;;5076327;28;20056;-77
2021/05/22 10:01:05;;;;;;;0.50;0.50;;;11.30;84.10;;;;;;5060763;28;20048;-77
2021/05/22 10:03:31;;;;;;;0.75;0.70;;;11.30;83.60;;;;;;5058818;28;20047;-77
2021/05/22 10:05:56;;;;;;;0.60;0.60;;;11.40;83.50;;;;;;5075309;28;20131;-77
2021/05/22 10:08:22;;;;;;;1.42;0.60;;;11.40;83.40;;;;;;5076530;28;20054;-78
2021/05/22 10:10:50;;;;;;;0.85;0.70;;;11.40;83.40;;;;;;5075629;28;20135;-78
2021/05/22 10:13:18;;;;;;;0.93;0.47;;;11.50;83.40;;;;;;5076669;28;20040;-77
2021/05/22 10:15:46;;;;;;;0.95;0.68;;;11.40;83.30;;;;;;5094636;28;20036;-77
2021/05/22 10:18:14;;;;;;;0.82;0.63;;;11.60;83.40;;;;;;5076285;28;20471;-77
2021/05/22 10:20:40;;;;;;;1.85;0.70;;;11.50;83.40;;;;;;5060264;28;20394;-78
2021/05/22 10:23:06;;;;;;;0.60;0.60;;;11.50;83.40;;;;;;5076548;28;20040;-77
2021/05/22 10:25:32;;;;;;;1.75;0.60;;;11.50;83.50;;;;;;5094345;28;20591;-77
2021/05/22 10:27:59;;;;;;;0.70;0.70;;;11.50;83.50;;;;;;5074121;28;20044;-76
2021/05/22 10:30:25;;;;;;;0.93;0.80;;;11.60;83.50;;;;;;5059377;28;20044;-76
2021/05/22 10:33:06;;;;;;;0.90;0.60;;;11.60;83.40;;;;;;5094566;28;20486;-77
2021/05/22 10:35:42;;;;;;;1.00;0.63;;;11.60;83.40;;;;;;5060820;28;20448;-77
2021/05/22 10:38:09;;;;;;;0.95;0.80;;;11.70;83.30;;;;;;5076406;28;20047;-76
2021/05/22 10:40:45;;;;;;;1.33;0.70;;;11.70;83.20;;;;;;5041527;28;20086;-77
2021/05/22 10:43:10;;;;;;;0.98;0.70;;;11.70;83.10;;;;;;5059701;28;20051;-78
2021/05/22 10:45:38;;;;;;;1.35;0.57;;;11.90;82.90;;;;;;5076153;28;20036;-77
2021/05/22 10:48:06;;;;;;;0.60;0.60;;;11.90;82.80;;;;;;5075974;28;20111;-76
2021/05/22 10:50:42;;;;;;;1.20;0.70;;;12.00;82.80;;;;;;5094948;28;20043;-76
2021/05/22 10:53:33;;;;;;;0.50;0.50;;;12.00;82.80;;;;;;5094302;28;20039;-77
2021/05/22 10:56:16;;;;;;;1.67;0.70;;;12.00;82.80;;;;;;5075636;28;20036;-78
2021/05/22 10:59:15;;;;;;;0.55;0.55;;;12.00;82.90;;;;;;5060873;28;20039;-78
2021/05/22 11:01:43;;;;;;;1.02;0.80;;;11.90;82.80;;;;;;5077579;28;20032;-78
2021/05/22 11:04:30;;;;;;;0.60;0.55;;;11.90;83.00;;;;;;5080213;28;20032;-77
2021/05/22 11:06:59;;;;;;;0.55;0.55;;;11.80;83.20;;;;;;5063285;28;20040;-78
2021/05/22 11:09:47;;;;;;;1.30;0.65;;;11.90;83.30;;;;;;5059852;28;20028;-76
2021/05/22 11:12:41;;;;;;;0.50;0.50;;;11.80;83.40;;;;;;5080119;28;20052;-77
2021/05/22 11:15:36;;;;;;;0.60;0.60;;;11.90;83.50;;;;;;5061677;28;20079;-77
2021/05/22 11:18:02;;;;;;;0.30;0.30;;;11.90;83.60;;;;;;5073240;28;20118;-76
2021/05/22 11:20:28;;;;;;;2.67;0.60;;;11.80;83.40;;;;;;5041373;28;20957;-78
2021/05/22 11:23:00;;;;;;;0.50;0.50;;;11.80;83.50;;;;;;5075422;28;20040;-77
2021/05/22 11:25:29;;;;;;;0.90;0.60;;;11.80;83.60;;;;;;5058842;28;20036;-77
2021/05/22 11:28:05;;;;;;;0.50;0.50;;;11.80;83.60;;;;;;5093320;28;20067;-76
2021/05/22 11:30:52;;;;;;;0.50;0.50;;;11.80;83.90;;;;;;5076459;28;20090;-76
2021/05/22 11:33:31;;;;;;;0.50;0.50;;;11.80;84.00;;;;;;5045500;28;20490;-78
2021/05/22 11:36:11;;;;;;;0.47;0.47;;;11.80;84.00;;;;;;5092925;28;20089;-78
2021/05/22 11:38:38;;;;;;;0.52;0.40;;;11.80;84.00;;;;;;5058525;28;20477;-77
2021/05/22 11:41:07;;;;;;;0.50;0.50;;;11.70;84.10;;;;;;5059755;28;20036;-78
2021/05/22 11:43:33;;;;;;;0.65;0.50;;;11.60;84.20;;;;;;5075167;28;20409;-79
2021/05/22 11:46:03;;;;;;;1.38;0.40;;;11.70;84.40;;;;;;5093891;28;20047;-78
2021/05/22 11:48:40;;;;;;;0.38;0.38;;;11.70;84.60;;;;;;5074982;28;20051;-76
2021/05/22 11:51:18;;;;;;;0.20;0.20;;;11.80;84.60;;;;;;5075941;28;20123;-76
2021/05/22 11:53:53;;;;;;;0.30;0.30;;;11.80;84.50;;;;;;5093071;28;20130;-77
2021/05/22 11:56:19;;;;;;;0.20;0.20;;;11.80;84.40;;;;;;5092976;28;20519;-77
2021/05/22 11:58:47;;;;;;;0.30;0.30;;;12.00;85.00;;;;;;5092962;28;20412;-77
2021/05/22 12:01:18;;;;;;;0.98;0.40;;;11.90;84.20;;;;;;5058902;28;20477;-77
2021/05/22 12:03:47;;;;;;;0.30;0.30;;;12.10;84.20;;;;;;5093019;28;20109;-77
2021/05/22 12:06:36;;;;;;;0.20;0.20;;;12.10;84.10;;;;;;5074573;28;20052;-78
2021/05/22 12:09:20;;;;;;;0.25;0.25;;;12.20;83.90;;;;;;5059190;28;20077;-77
2021/05/22 12:12:00;;;;;;;0.60;0.35;;;12.20;83.70;;;;;;5058411;28;20048;-77
2021/05/22 12:14:44;;;;;;;0.25;0.25;;;12.20;83.80;;;;;;5075191;28;20039;-77
2021/05/22 12:17:13;;;;;;;0.40;0.40;;;12.10;84.00;;;;;;5072699;28;20040;-78
2021/05/22 12:19:41;;;;;;;0.40;0.30;;;12.00;84.20;;;;;;5057954;28;20092;-79
2021/05/22 12:22:07;;;;;;;0.30;0.30;;;11.90;84.40;;;;;;5059233;28;20083;-78
2021/05/22 12:24:34;;;;;;;0.30;0.30;;;11.90;84.60;;;;;;5092799;28;20036;-78
2021/05/22 12:27:00;;;;;;;0.93;0.40;;;12.10;84.60;;;;;;5074906;28;20044;-78
2021/05/22 12:29:28;;;;;;;0.68;0.50;;;12.10;84.50;;;;;;5074407;28;20379;-79
2021/05/22 12:31:58;;;;;;;0.43;0.43;;;12.20;84.30;;;;;;5091024;28;20048;-77
2021/05/22 12:34:35;;;;;;;0.80;0.50;;;12.30;84.10;;;;;;5060876;28;20490;-79
2021/05/22 12:37:07;;;;;;;0.50;0.50;;;12.30;84.10;;;;;;5091273;28;20074;-76
2021/05/22 12:39:38;;;;;;;0.45;0.45;;;12.30;84.10;;;;;;5057995;28;20394;-74
2021/05/22 12:42:17;;;;;;;0.68;0.60;;;12.20;84.10;;;;;;5090951;28;20036;-74
2021/05/22 12:44:43;;;;;;;0.63;0.63;;;12.10;84.30;;;;;;5074120;28;20036;-74
2021/05/22 12:47:11;;;;;;;0.95;0.60;;;12.00;84.40;;;;;;5092621;28;20047;-75
2021/05/22 12:49:37;;;;;;;0.70;0.70;;;12.00;84.60;;;;;;5057240;28;20036;-78
2021/05/22 12:52:10;;;;;;;0.90;0.60;;;11.90;84.70;;;;;;5073329;28;20426;-74
2021/05/22 12:54:45;;;;;;;1.05;0.77;;;12.00;84.80;;;;;;5072881;28;20494;-76